createdAt,value
2019-05-26T00:03:44.254Z,9.20
2019-05-26T00:07:48.872Z,9.10
2019-05-26T00:11:53.577Z,9.20
2019-05-26T00:15:58.237Z,9.20
2019-05-26T00:20:04.341Z,9.10
2019-05-26T00:24:08.854Z,9.00
2019-05-26T00:28:13.590Z,8.90
2019-05-26T00:32:18.140Z,8.90
2019-05-26T00:36:22.758Z,8.90
2019-05-26T00:40:27.731Z,8.80
2019-05-26T00:44:32.329Z,8.70
2019-05-26T00:48:37.035Z,8.70
2019-05-26T00:52:41.711Z,8.60
2019-05-26T00:56:46.391Z,8.70
2019-05-26T01:00:51.054Z,8.70
2019-05-26T01:04:55.692Z,8.70
2019-05-26T01:09:00.314Z,8.60
2019-05-26T01:13:06.073Z,8.60
2019-05-26T01:17:10.606Z,8.50
2019-05-26T01:21:15.174Z,8.50
2019-05-26T01:25:19.849Z,8.50
2019-05-26T01:29:24.532Z,8.50
2019-05-26T01:33:29.309Z,8.50
2019-05-26T01:37:33.994Z,8.40
2019-05-26T01:41:38.514Z,8.50
2019-05-26T01:45:43.151Z,8.40
2019-05-26T01:49:47.677Z,8.40
2019-05-26T01:53:52.219Z,8.40
2019-05-26T01:57:56.761Z,8.40
2019-05-26T02:02:01.390Z,8.30
2019-05-26T02:06:06.003Z,8.30
2019-05-26T02:10:10.882Z,8.40
2019-05-26T02:14:15.553Z,8.40
2019-05-26T02:18:20.058Z,8.40
2019-05-26T02:22:24.575Z,8.30
2019-05-26T02:26:29.119Z,8.30
2019-05-26T02:30:33.729Z,8.30
2019-05-26T02:34:38.260Z,8.30
2019-05-26T02:39:00.245Z,8.30
2019-05-26T02:42:49.105Z,8.30
2019-05-26T02:46:53.707Z,8.30
2019-05-26T02:50:58.281Z,8.40
2019-05-26T02:55:03.746Z,8.30
2019-05-26T02:59:08.286Z,8.30
2019-05-26T03:03:14.544Z,8.40
2019-05-26T03:07:19.620Z,8.40
2019-05-26T03:11:25.591Z,8.40
2019-05-26T03:15:32.742Z,8.30
2019-05-26T03:19:39.367Z,8.40
2019-05-26T03:23:47.419Z,8.30
2019-05-26T03:27:51.736Z,8.30
2019-05-26T03:31:56.359Z,8.20
2019-05-26T03:36:01.149Z,8.30
2019-05-26T03:40:10.271Z,8.20
2019-05-26T03:44:14.815Z,8.20
2019-05-26T03:48:19.334Z,8.20
2019-05-26T03:52:24.076Z,8.10
2019-05-26T03:56:28.795Z,8.20
2019-05-26T04:00:33.393Z,8.20
2019-05-26T04:04:38.002Z,8.20
2019-05-26T04:08:42.564Z,8.30
2019-05-26T04:12:47.175Z,8.40
2019-05-26T04:16:51.991Z,8.50
2019-05-26T04:20:56.549Z,8.60
2019-05-26T04:25:01.141Z,8.70
2019-05-26T04:29:05.767Z,8.90
2019-05-26T04:33:10.412Z,9.10
2019-05-26T04:37:15.063Z,9.50
2019-05-26T04:41:19.650Z,9.80
2019-05-26T04:45:24.204Z,10.10
2019-05-26T04:49:28.828Z,10.30
2019-05-26T04:53:33.583Z,10.50
2019-05-26T04:57:41.341Z,10.80
2019-05-26T05:01:45.981Z,11.00
2019-05-26T05:05:50.616Z,11.30
2019-05-26T05:09:55.163Z,11.70
2019-05-26T05:13:59.826Z,12.00
2019-05-26T05:18:04.548Z,12.20
2019-05-26T05:22:09.271Z,12.50
2019-05-26T05:26:14.086Z,12.70
2019-05-26T05:30:20.622Z,12.70
2019-05-26T05:34:25.190Z,12.70
2019-05-26T05:38:29.798Z,12.70
2019-05-26T05:42:34.355Z,12.70
2019-05-26T05:46:39.096Z,12.70
2019-05-26T05:50:43.633Z,12.80
2019-05-26T05:54:48.172Z,13.00
2019-05-26T05:58:52.723Z,13.10
2019-05-26T06:02:57.292Z,13.30
2019-05-26T06:07:01.919Z,13.50
2019-05-26T06:11:15.906Z,13.80
2019-05-26T06:15:15.113Z,14.00
2019-05-26T06:19:19.821Z,14.30
2019-05-26T06:23:24.491Z,14.80
2019-05-26T06:27:29.352Z,15.20
2019-05-26T06:31:34.000Z,15.60
2019-05-26T06:35:38.624Z,15.80
2019-05-26T06:39:43.232Z,16.00
2019-05-26T06:43:47.924Z,16.50
2019-05-26T06:47:52.462Z,16.80
2019-05-26T06:51:57.015Z,17.50
2019-05-26T06:56:01.597Z,17.80
2019-05-26T07:00:07.277Z,18.20
2019-05-26T07:04:11.816Z,18.70
2019-05-26T07:08:16.382Z,18.80
2019-05-26T07:12:21.054Z,18.30
2019-05-26T07:16:37.693Z,18.20
2019-05-26T07:20:32.037Z,18.20
2019-05-26T07:24:36.572Z,18.20
2019-05-26T07:28:41.107Z,18.40
2019-05-26T07:32:45.791Z,18.50
2019-05-26T07:36:50.317Z,19.00
2019-05-26T07:40:54.883Z,19.50
2019-05-26T07:44:59.447Z,20.20
2019-05-26T07:49:04.085Z,20.10
2019-05-26T07:53:08.736Z,19.60
2019-05-26T07:57:13.310Z,19.20
2019-05-26T08:01:17.970Z,18.80
2019-05-26T08:05:22.715Z,18.50
2019-05-26T08:09:27.259Z,18.70
2019-05-26T08:13:31.913Z,18.50
2019-05-26T08:17:36.644Z,18.70
2019-05-26T08:21:41.197Z,18.80
2019-05-26T08:25:45.848Z,19.10
2019-05-26T08:29:50.496Z,19.00
2019-05-26T08:33:55.249Z,19.20
2019-05-26T08:37:59.808Z,19.10
2019-05-26T08:42:04.587Z,19.00
2019-05-26T08:46:09.333Z,19.00
2019-05-26T08:50:14.589Z,19.00
2019-05-26T08:54:19.263Z,18.90
2019-05-26T08:58:23.962Z,19.00
2019-05-26T09:02:28.495Z,18.90
2019-05-26T09:06:32.976Z,18.80
2019-05-26T09:10:37.674Z,18.70
2019-05-26T09:14:42.197Z,18.70
2019-05-26T09:18:46.909Z,18.80
2019-05-26T09:22:51.603Z,18.80
2019-05-26T09:26:56.151Z,18.80
2019-05-26T09:31:00.911Z,18.80
2019-05-26T09:35:08.730Z,18.80
2019-05-26T09:39:12.994Z,18.80
2019-05-26T09:43:17.563Z,18.90
2019-05-26T09:47:22.121Z,18.90
2019-05-26T09:51:26.759Z,18.90
2019-05-26T09:55:31.287Z,18.80
2019-05-26T09:59:35.927Z,18.80
2019-05-26T10:03:40.518Z,18.80
2019-05-26T10:07:45.067Z,18.80
2019-05-26T10:11:49.688Z,18.90
2019-05-26T10:15:54.191Z,19.10
2019-05-26T10:19:58.908Z,19.30
2019-05-26T10:24:03.511Z,19.40
2019-05-26T10:28:08.064Z,19.40
2019-05-26T10:32:12.600Z,19.40
2019-05-26T10:36:17.138Z,19.40
2019-05-26T10:40:21.821Z,19.50
2019-05-26T10:44:26.324Z,19.50
2019-05-26T10:48:30.954Z,19.70
2019-05-26T10:52:35.713Z,19.80
2019-05-26T10:56:40.337Z,19.90
2019-05-26T11:00:44.880Z,19.80
2019-05-26T11:04:49.608Z,19.90
2019-05-26T11:08:54.329Z,19.80
2019-05-26T11:12:58.847Z,19.70
2019-05-26T11:17:03.554Z,19.60
2019-05-26T11:21:08.221Z,19.60
2019-05-26T11:25:12.932Z,19.50
2019-05-26T11:29:17.508Z,19.50
2019-05-26T11:33:22.421Z,19.60
2019-05-26T11:37:27.057Z,19.60
2019-05-26T11:41:31.649Z,19.50
2019-05-26T11:45:36.325Z,19.50
2019-05-26T11:49:40.863Z,19.50
2019-05-26T11:53:45.417Z,19.60
2019-05-26T11:57:50.132Z,19.80
2019-05-26T12:01:55.009Z,20.10
2019-05-26T12:05:59.577Z,20.30
2019-05-26T12:10:07.241Z,20.50
2019-05-26T12:14:11.750Z,20.70
2019-05-26T12:18:16.298Z,20.70
2019-05-26T12:22:20.897Z,20.60
2019-05-26T12:26:25.605Z,20.60
2019-05-26T12:30:30.320Z,20.70
2019-05-26T12:34:35.142Z,20.80
2019-05-26T12:38:51.491Z,20.80
2019-05-26T12:42:56.145Z,20.70
2019-05-26T12:47:00.819Z,20.70
2019-05-26T12:51:05.396Z,20.60
2019-05-26T12:55:10.295Z,20.50
2019-05-26T12:59:14.958Z,20.40
2019-05-26T13:03:19.487Z,20.60
2019-05-26T13:07:24.037Z,20.70
2019-05-26T13:11:28.700Z,20.70
2019-05-26T13:15:33.441Z,20.80
2019-05-26T13:19:38.107Z,20.70
2019-05-26T13:23:42.741Z,20.80
2019-05-26T13:27:47.350Z,20.90
2019-05-26T13:31:52.004Z,21.00
2019-05-26T13:35:56.735Z,21.10
2019-05-26T13:40:01.375Z,21.10
2019-05-26T13:44:06.136Z,21.30
2019-05-26T13:48:10.689Z,21.40
2019-05-26T13:52:15.410Z,21.30
2019-05-26T13:56:19.979Z,21.30
2019-05-26T14:00:24.801Z,21.30
2019-05-26T14:04:29.459Z,21.40
2019-05-26T14:08:33.983Z,21.40
2019-05-26T14:12:38.754Z,21.40
2019-05-26T14:16:46.023Z,21.40
2019-05-26T14:20:50.695Z,21.40
2019-05-26T14:24:55.449Z,21.40
2019-05-26T14:29:00.071Z,21.40
2019-05-26T14:33:05.373Z,21.30
2019-05-26T14:37:09.886Z,21.20
2019-05-26T14:41:14.436Z,21.20
2019-05-26T14:45:19.880Z,21.10
2019-05-26T14:49:24.407Z,21.00
2019-05-26T14:53:29.119Z,20.90
2019-05-26T14:57:33.755Z,21.00
2019-05-26T15:01:38.421Z,20.80
2019-05-26T15:05:43.180Z,20.70
2019-05-26T15:09:47.795Z,20.60
2019-05-26T15:13:52.746Z,20.60
2019-05-26T15:17:57.332Z,20.60
2019-05-26T15:22:02.007Z,20.60
2019-05-26T15:26:06.888Z,20.80
2019-05-26T15:30:11.907Z,20.80
2019-05-26T15:34:16.460Z,20.80
2019-05-26T15:38:21.016Z,20.70
2019-05-26T15:42:25.655Z,20.60
2019-05-26T15:46:30.233Z,20.60
2019-05-26T15:50:34.736Z,20.50
2019-05-26T15:54:39.428Z,20.30
2019-05-26T15:58:45.704Z,20.20
2019-05-26T16:02:50.560Z,20.20
2019-05-26T16:06:55.132Z,20.10
2019-05-26T16:10:59.814Z,20.10
2019-05-26T16:15:06.867Z,20.00
2019-05-26T16:19:11.193Z,19.90
2019-05-26T16:23:15.838Z,19.90
2019-05-26T16:27:21.434Z,19.80
2019-05-26T16:31:26.093Z,19.80
2019-05-26T16:35:30.635Z,19.80
2019-05-26T16:39:37.227Z,19.80
2019-05-26T16:43:41.520Z,19.80
2019-05-26T16:47:47.406Z,19.80
2019-05-26T16:51:51.960Z,19.70
2019-05-26T16:55:56.595Z,19.70
2019-05-26T17:00:01.208Z,19.60
2019-05-26T17:04:05.877Z,19.60
2019-05-26T17:08:10.418Z,19.60
2019-05-26T17:12:15.035Z,19.50
2019-05-26T17:16:19.722Z,19.50
2019-05-26T17:20:24.367Z,19.60
2019-05-26T17:24:28.911Z,19.60
2019-05-26T17:28:33.640Z,19.60
2019-05-26T17:32:38.267Z,19.80
2019-05-26T17:36:43.048Z,19.80
2019-05-26T17:40:48.721Z,19.90
2019-05-26T17:44:58.932Z,20.00
2019-05-26T17:49:04.074Z,19.90
2019-05-26T17:53:08.959Z,19.90
2019-05-26T17:57:13.596Z,19.80
2019-05-26T18:01:18.167Z,19.80
2019-05-26T18:05:22.879Z,20.00
2019-05-26T18:09:41.355Z,20.10
2019-05-26T18:13:33.783Z,20.20
2019-05-26T18:17:47.102Z,20.20
2019-05-26T18:21:44.713Z,20.10
2019-05-26T18:25:49.531Z,20.00
2019-05-26T18:29:54.055Z,19.90
2019-05-26T18:33:58.739Z,19.90
2019-05-26T18:38:03.430Z,19.80
2019-05-26T18:42:08.018Z,19.60
2019-05-26T18:46:12.924Z,19.50
2019-05-26T18:50:17.720Z,19.40
2019-05-26T18:54:22.446Z,19.30
2019-05-26T18:58:27.086Z,19.20
2019-05-26T19:02:31.684Z,19.10
2019-05-26T19:06:36.260Z,18.90
2019-05-26T19:10:41.081Z,18.80
2019-05-26T19:14:45.714Z,18.80
2019-05-26T19:18:50.374Z,18.60
2019-05-26T19:22:55.211Z,18.60
2019-05-26T19:26:59.888Z,18.60
2019-05-26T19:31:04.563Z,18.50
2019-05-26T19:35:10.246Z,18.30
2019-05-26T19:39:14.802Z,18.30
2019-05-26T19:43:19.343Z,18.30
2019-05-26T19:47:23.952Z,18.10
2019-05-26T19:51:28.697Z,18.00
2019-05-26T19:55:33.237Z,17.90
2019-05-26T19:59:37.937Z,17.90
2019-05-26T20:03:42.648Z,17.80
2019-05-26T20:07:47.423Z,17.80
2019-05-26T20:11:52.549Z,17.70
2019-05-26T20:15:57.308Z,17.70
2019-05-26T20:20:01.970Z,17.60
2019-05-26T20:24:06.701Z,17.60
2019-05-26T20:28:11.559Z,17.60
2019-05-26T20:32:16.154Z,17.70
2019-05-26T20:36:20.981Z,17.70
2019-05-26T20:40:25.627Z,17.70
2019-05-26T20:44:30.271Z,17.70
2019-05-26T20:48:34.856Z,17.70
2019-05-26T20:52:39.527Z,17.70
2019-05-26T20:56:44.189Z,17.60
2019-05-26T21:00:49.058Z,17.60
2019-05-26T21:04:54.244Z,17.50
2019-05-26T21:08:58.830Z,17.50
2019-05-26T21:13:03.507Z,17.40
2019-05-26T21:17:08.249Z,17.40
2019-05-26T21:21:12.852Z,17.40
2019-05-26T21:25:17.540Z,17.30
2019-05-26T21:29:22.176Z,17.30
2019-05-26T21:33:26.922Z,17.20
2019-05-26T21:37:31.492Z,17.10
2019-05-26T21:41:36.337Z,17.10
2019-05-26T21:45:41.055Z,17.00
2019-05-26T21:49:45.584Z,16.90
2019-05-26T21:53:50.115Z,16.80
2019-05-26T21:57:54.707Z,16.70
2019-05-26T22:01:59.326Z,16.70
2019-05-26T22:06:04.073Z,16.60
2019-05-26T22:10:08.825Z,16.40
2019-05-26T22:14:13.333Z,16.40
2019-05-26T22:18:17.880Z,16.40
2019-05-26T22:22:22.499Z,16.30
2019-05-26T22:26:27.120Z,16.30
2019-05-26T22:30:31.668Z,16.20
2019-05-26T22:34:36.200Z,16.10
2019-05-26T22:38:40.735Z,16.10
2019-05-26T22:42:45.263Z,16.00
2019-05-26T22:46:49.805Z,16.00
2019-05-26T22:50:54.336Z,15.90
2019-05-26T22:54:58.948Z,15.90
2019-05-26T22:59:03.492Z,15.90
2019-05-26T23:03:08.117Z,15.90
2019-05-26T23:07:12.721Z,15.80
2019-05-26T23:11:17.353Z,15.80
2019-05-26T23:15:21.979Z,15.80
2019-05-26T23:19:26.515Z,15.80
2019-05-26T23:23:31.043Z,15.70
2019-05-26T23:27:35.650Z,15.70
2019-05-26T23:31:40.182Z,15.80
2019-05-26T23:35:44.788Z,15.70
2019-05-26T23:39:49.329Z,15.70
2019-05-26T23:43:53.840Z,15.80
2019-05-26T23:47:58.549Z,15.70
2019-05-26T23:52:03.285Z,15.70
2019-05-26T23:56:07.923Z,15.70
